3M5 weather

Moontown Airport
Huntsville, Alabama, United States

Public forecast

Using degrees Fahrenheit for public forecast. Weather courtesy of forecast.io.

Closest aviation weather report (METAR) to Moontown Airport

Closest report is Madison County Executive Airport-Tom Sharp Jr Field, 8.3 nm (15.4 km) NW. Retrieved 2019/10/13 19:35 UTC (7 minutes ago):

KMDQ 131935Z AUTO 22006KT 10SM CLR 19/04 A3004 RMK A02 T01950038

Closest aviation forecast (TAF) to Moontown Airport

Closest forecast is Huntsville International Carl T Jones Field, 16.8 nm (31.2 km) WSW. Retrieved 2019/10/13 18:42 UTC (60 minutes ago):

TAF KHSV 131740Z 1318/1418 26005KT P6SM BKN120 FM140000 00000KT P6SM SKC